createdAt,value
2018-03-19T00:02:01.058Z,30.30
2018-03-19T00:04:27.810Z,29.27
2018-03-19T00:06:54.564Z,37.88
2018-03-19T00:09:21.463Z,29.67
2018-03-19T00:11:48.082Z,32.30
2018-03-19T00:14:14.830Z,30.35
2018-03-19T00:16:41.597Z,35.50
2018-03-19T00:19:08.347Z,34.83
2018-03-19T00:21:35.079Z,28.00
2018-03-19T00:24:01.825Z,36.97
2018-03-19T00:26:28.584Z,29.37
2018-03-19T00:28:55.309Z,27.75
2018-03-19T00:31:22.053Z,34.33
2018-03-19T00:33:48.795Z,28.23
2018-03-19T00:36:15.546Z,35.45
2018-03-19T00:38:42.294Z,32.85
2018-03-19T00:41:09.050Z,34.38
2018-03-19T00:43:35.805Z,30.37
2018-03-19T00:46:02.540Z,36.15
2018-03-19T00:48:29.286Z,31.83
2018-03-19T00:50:56.030Z,42.08
2018-03-19T00:53:22.777Z,30.30
2018-03-19T00:55:49.507Z,35.10
2018-03-19T00:58:16.279Z,30.92
2018-03-19T01:00:43.053Z,31.42
2018-03-19T01:03:09.802Z,25.67
2018-03-19T01:05:36.547Z,27.58
2018-03-19T01:08:03.288Z,34.22
2018-03-19T01:10:30.043Z,34.92
2018-03-19T01:12:56.802Z,27.95
2018-03-19T01:15:23.540Z,31.75
2018-03-19T01:17:50.284Z,28.33
2018-03-19T01:20:17.020Z,26.75
2018-03-19T01:22:43.820Z,29.17
2018-03-19T01:25:10.573Z,30.10
2018-03-19T01:27:37.314Z,28.00
2018-03-19T01:30:04.058Z,29.52
2018-03-19T01:32:30.803Z,30.83
2018-03-19T01:34:57.560Z,31.65
2018-03-19T01:37:24.304Z,30.73
2018-03-19T01:39:51.048Z,29.05
2018-03-19T01:42:17.867Z,32.88
2018-03-19T01:44:44.613Z,27.33
2018-03-19T01:47:11.398Z,27.33
2018-03-19T01:49:38.135Z,27.87
2018-03-19T01:52:04.884Z,30.40
2018-03-19T01:54:31.623Z,24.35
2018-03-19T01:56:58.358Z,32.53
2018-03-19T01:59:25.105Z,27.17
2018-03-19T02:01:51.834Z,28.55
2018-03-19T02:04:18.620Z,43.80
2018-03-19T02:06:45.363Z,33.63
2018-03-19T02:09:12.104Z,32.75
2018-03-19T02:11:38.848Z,34.95
2018-03-19T02:14:05.631Z,31.67
2018-03-19T02:16:32.377Z,33.10
2018-03-19T02:18:59.210Z,35.70
2018-03-19T02:21:25.972Z,31.15
2018-03-19T02:23:52.719Z,28.33
2018-03-19T02:26:19.448Z,31.10
2018-03-19T02:28:46.175Z,31.62
2018-03-19T02:31:12.930Z,30.37
2018-03-19T02:33:39.657Z,27.45
2018-03-19T02:36:06.434Z,31.02
2018-03-19T02:38:33.168Z,37.90
2018-03-19T02:40:59.941Z,33.22
2018-03-19T02:43:26.697Z,32.60
2018-03-19T02:45:53.441Z,33.15
2018-03-19T02:48:20.193Z,35.08
2018-03-19T02:50:46.964Z,32.80
2018-03-19T02:53:13.707Z,28.95
2018-03-19T02:55:40.475Z,28.90
2018-03-19T02:58:07.203Z,28.87
2018-03-19T03:00:33.987Z,30.25
2018-03-19T03:03:00.745Z,27.02
2018-03-19T03:05:27.487Z,32.30
2018-03-19T03:07:54.226Z,30.90
2018-03-19T03:10:20.965Z,27.10
2018-03-19T03:12:47.713Z,30.48
2018-03-19T03:15:14.487Z,29.30
2018-03-19T03:17:41.217Z,29.23
2018-03-19T03:20:07.960Z,33.20
2018-03-19T03:22:34.701Z,26.58
2018-03-19T03:25:01.440Z,28.90
2018-03-19T03:27:28.279Z,27.55
2018-03-19T03:29:55.030Z,28.17
2018-03-19T03:32:21.774Z,26.65
2018-03-19T03:34:48.507Z,28.80
2018-03-19T03:37:15.255Z,28.60
2018-03-19T03:39:41.991Z,29.17
2018-03-19T03:42:08.798Z,29.83
2018-03-19T03:44:35.547Z,29.52
2018-03-19T03:47:02.334Z,29.80
2018-03-19T03:49:29.073Z,25.40
2018-03-19T03:51:55.826Z,32.63
2018-03-19T03:54:22.632Z,30.20
2018-03-19T03:56:49.380Z,27.05
2018-03-19T03:59:16.136Z,28.77
2018-03-19T04:01:42.862Z,25.73
2018-03-19T04:04:09.619Z,26.67
2018-03-19T04:06:36.353Z,22.70
2018-03-19T04:09:03.170Z,28.35
2018-03-19T04:11:29.894Z,35.38
2018-03-19T04:13:56.693Z,25.37
2018-03-19T04:16:23.431Z,23.98
2018-03-19T04:18:50.180Z,33.60
2018-03-19T04:21:16.918Z,26.20
2018-03-19T04:23:43.643Z,29.58
2018-03-19T04:26:10.376Z,24.33
2018-03-19T04:28:37.139Z,30.33
2018-03-19T04:31:03.904Z,25.80
2018-03-19T04:33:30.653Z,27.62
2018-03-19T04:35:57.406Z,27.58
2018-03-19T04:38:24.154Z,31.27
2018-03-19T04:40:50.896Z,25.30
2018-03-19T04:43:18.554Z,30.67
2018-03-19T04:45:45.426Z,32.00
2018-03-19T04:48:12.339Z,32.00
2018-03-19T04:50:39.228Z,27.25
2018-03-19T04:53:05.985Z,29.00
2018-03-19T04:55:32.717Z,31.95
2018-03-19T04:57:59.539Z,28.35
2018-03-19T05:00:26.352Z,27.42
2018-03-19T05:02:53.147Z,27.87
2018-03-19T05:05:19.891Z,27.85
2018-03-19T05:07:46.631Z,31.45
2018-03-19T05:10:13.372Z,28.20
2018-03-19T05:12:40.118Z,34.97
2018-03-19T05:15:06.862Z,35.65
2018-03-19T05:17:33.670Z,34.95
2018-03-19T05:20:00.455Z,29.67
2018-03-19T05:22:27.211Z,29.50
2018-03-19T05:24:53.940Z,29.95
2018-03-19T05:27:20.674Z,27.20
2018-03-19T05:29:47.426Z,27.77
2018-03-19T05:32:14.166Z,30.73
2018-03-19T05:34:40.913Z,29.10
2018-03-19T05:37:07.643Z,33.70
2018-03-19T05:39:34.363Z,28.62
2018-03-19T05:42:01.162Z,28.38
2018-03-19T05:44:27.917Z,30.73
2018-03-19T05:46:54.659Z,27.58
2018-03-19T05:49:21.417Z,30.85
2018-03-19T05:51:48.154Z,32.08
2018-03-19T05:54:14.894Z,29.17
2018-03-19T05:56:41.665Z,34.38
2018-03-19T05:59:08.420Z,31.87
2018-03-19T06:01:35.231Z,31.30
2018-03-19T06:04:01.992Z,32.42
2018-03-19T06:06:28.755Z,32.75
2018-03-19T06:08:55.504Z,28.95
2018-03-19T06:11:22.274Z,31.37
2018-03-19T06:13:49.018Z,28.38
2018-03-19T06:16:15.763Z,31.48
2018-03-19T06:18:42.496Z,31.20
2018-03-19T06:21:09.251Z,32.58
2018-03-19T06:23:35.996Z,32.92
2018-03-19T06:26:02.762Z,25.20
2018-03-19T06:28:29.502Z,27.10
2018-03-19T06:30:56.252Z,34.08
2018-03-19T06:33:23.017Z,30.42
2018-03-19T06:35:49.758Z,30.70
2018-03-19T06:38:16.537Z,26.65
2018-03-19T06:40:43.393Z,30.40
2018-03-19T06:43:10.153Z,28.55
2018-03-19T06:45:36.907Z,31.33
2018-03-19T06:48:03.646Z,28.90
2018-03-19T06:50:30.401Z,34.75
2018-03-19T06:52:57.160Z,28.80
2018-03-19T06:55:23.891Z,33.67
2018-03-19T06:57:50.657Z,32.92
2018-03-19T07:00:17.494Z,36.28
2018-03-19T07:02:44.271Z,33.22
2018-03-19T07:05:11.057Z,32.40
2018-03-19T07:07:37.825Z,31.80
2018-03-19T07:10:04.562Z,33.38
2018-03-19T07:12:31.310Z,32.00
2018-03-19T07:14:58.054Z,31.40
2018-03-19T07:17:24.800Z,28.80
2018-03-19T07:19:51.532Z,30.85
2018-03-19T07:22:18.269Z,27.08
2018-03-19T07:24:45.112Z,31.58
2018-03-19T07:27:11.860Z,31.83
2018-03-19T07:29:38.617Z,28.95
2018-03-19T07:32:05.388Z,34.88
2018-03-19T07:34:32.158Z,26.08
2018-03-19T07:36:58.921Z,30.33
2018-03-19T07:39:25.656Z,32.13
2018-03-19T07:41:52.418Z,28.80
2018-03-19T07:44:19.256Z,28.05
2018-03-19T07:46:45.998Z,26.15
2018-03-19T07:49:12.740Z,33.05
2018-03-19T07:51:39.475Z,28.35
2018-03-19T07:54:06.218Z,30.67
2018-03-19T07:56:32.981Z,27.73
2018-03-19T07:58:59.722Z,29.02
2018-03-19T08:01:26.553Z,29.00
2018-03-19T08:03:53.322Z,25.35
2018-03-19T08:06:20.056Z,30.40
2018-03-19T08:08:46.803Z,30.95
2018-03-19T08:11:13.595Z,26.87
2018-03-19T08:13:40.370Z,35.10
2018-03-19T08:16:07.129Z,31.98
2018-03-19T08:18:33.948Z,29.90
2018-03-19T08:21:00.667Z,28.08
2018-03-19T08:23:27.411Z,35.92
2018-03-19T08:25:54.202Z,27.70
2018-03-19T08:28:27.119Z,40.28
2018-03-19T08:30:53.873Z,30.92
2018-03-19T08:33:20.866Z,30.55
2018-03-19T08:35:47.628Z,32.38
2018-03-19T08:38:14.371Z,29.95
2018-03-19T08:40:41.142Z,31.60
2018-03-19T08:43:07.890Z,32.25
2018-03-19T08:45:34.626Z,29.23
2018-03-19T08:48:01.364Z,27.10
2018-03-19T08:50:28.115Z,31.12
2018-03-19T08:52:54.844Z,30.33
2018-03-19T08:55:21.614Z,27.87
2018-03-19T08:57:48.356Z,32.60
2018-03-19T09:00:15.104Z,32.08
2018-03-19T09:02:41.839Z,31.62
2018-03-19T09:05:08.585Z,30.42
2018-03-19T09:07:35.335Z,35.97
2018-03-19T09:10:02.094Z,32.95
2018-03-19T09:12:28.828Z,30.23
2018-03-19T09:14:55.569Z,26.05
2018-03-19T09:17:22.309Z,36.50
2018-03-19T09:19:49.075Z,32.90
2018-03-19T09:22:15.854Z,35.00
2018-03-19T09:24:42.600Z,26.48
2018-03-19T09:27:09.337Z,28.10
2018-03-19T09:29:36.104Z,33.50
2018-03-19T09:32:02.912Z,30.62
2018-03-19T09:34:29.645Z,31.35
2018-03-19T09:36:56.373Z,34.33
2018-03-19T09:39:23.092Z,26.40
2018-03-19T09:41:49.819Z,31.90
2018-03-19T09:44:16.573Z,30.90
2018-03-19T09:46:43.348Z,26.33
2018-03-19T09:49:10.078Z,26.80
2018-03-19T09:51:36.822Z,36.20
2018-03-19T09:54:03.569Z,31.00
2018-03-19T09:56:30.310Z,33.90
2018-03-19T09:58:57.352Z,26.70
2018-03-19T10:01:24.096Z,30.27
2018-03-19T10:03:50.834Z,29.42
2018-03-19T10:06:17.569Z,27.92
2018-03-19T10:08:44.321Z,27.37
2018-03-19T10:11:11.057Z,32.37
2018-03-19T10:13:37.812Z,31.23
2018-03-19T10:16:05.057Z,24.73
2018-03-19T10:18:31.835Z,23.53
2018-03-19T10:20:58.571Z,40.00
2018-03-19T10:23:25.308Z,23.80
2018-03-19T10:25:52.042Z,25.10
2018-03-19T10:28:18.771Z,24.40
2018-03-19T10:30:45.587Z,29.50
2018-03-19T10:33:12.323Z,23.57
2018-03-19T10:35:39.122Z,22.80
2018-03-19T10:38:05.845Z,25.10
2018-03-19T10:40:32.647Z,26.00
2018-03-19T10:42:59.387Z,26.27
2018-03-19T10:45:26.126Z,23.43
2018-03-19T10:47:52.864Z,24.30
2018-03-19T10:50:19.661Z,23.07
2018-03-19T10:52:46.443Z,21.90
2018-03-19T10:55:13.173Z,26.58
2018-03-19T10:57:39.901Z,26.83
2018-03-19T11:00:06.681Z,29.37
2018-03-19T11:02:33.452Z,26.27
2018-03-19T11:05:06.056Z,20.03
2018-03-19T11:07:38.554Z,19.90
2018-03-19T11:10:05.343Z,17.90
2018-03-19T11:12:32.074Z,23.27
2018-03-19T11:14:58.862Z,20.90
2018-03-19T11:17:25.588Z,19.50
2018-03-19T11:19:52.338Z,20.10
2018-03-19T11:22:19.061Z,21.63
2018-03-19T11:24:45.816Z,22.42
2018-03-19T11:27:12.540Z,19.77
2018-03-19T11:29:39.301Z,22.60
2018-03-19T11:32:06.039Z,20.77
2018-03-19T11:34:32.782Z,19.58
2018-03-19T11:36:59.539Z,21.87
2018-03-19T11:39:26.286Z,21.10
2018-03-19T11:41:53.049Z,20.15
2018-03-19T11:44:19.814Z,17.87
2018-03-19T11:46:46.572Z,16.40
2018-03-19T11:49:13.316Z,22.58
2018-03-19T11:51:40.051Z,20.60
2018-03-19T11:54:06.807Z,21.90
2018-03-19T11:56:33.555Z,19.20
2018-03-19T11:59:00.307Z,20.20
2018-03-19T12:01:27.058Z,16.95
2018-03-19T12:03:53.875Z,20.60
2018-03-19T12:06:20.610Z,19.65
2018-03-19T12:08:47.357Z,17.23
2018-03-19T12:11:14.091Z,19.50
2018-03-19T12:13:40.819Z,24.30
2018-03-19T12:16:07.555Z,18.80
2018-03-19T12:18:34.283Z,20.00
2018-03-19T12:21:01.029Z,19.57
2018-03-19T12:23:27.801Z,21.83
2018-03-19T12:25:54.523Z,19.33
2018-03-19T12:28:21.251Z,16.80
2018-03-19T12:30:58.968Z,22.27
2018-03-19T12:33:25.704Z,18.97
2018-03-19T12:35:52.435Z,18.30
2018-03-19T12:38:19.168Z,17.90
2018-03-19T12:40:45.921Z,23.70
2018-03-19T12:43:12.668Z,16.85
2018-03-19T12:45:39.420Z,20.77
2018-03-19T12:48:06.150Z,19.98
2018-03-19T12:50:32.910Z,19.37
2018-03-19T12:52:59.754Z,22.62
2018-03-19T12:55:26.504Z,21.80
2018-03-19T12:57:53.265Z,22.07
2018-03-19T13:00:20.019Z,20.90
2018-03-19T13:02:46.810Z,21.53
2018-03-19T13:05:13.537Z,26.10
2018-03-19T13:07:40.307Z,22.73
2018-03-19T13:10:07.025Z,30.03
2018-03-19T13:12:33.762Z,21.87
2018-03-19T13:15:00.519Z,20.27
2018-03-19T13:17:27.314Z,22.37
2018-03-19T13:19:54.044Z,20.70
2018-03-19T13:22:20.813Z,26.83
2018-03-19T13:24:47.590Z,24.80
2018-03-19T13:27:14.425Z,26.43
2018-03-19T13:29:41.239Z,25.30
2018-03-19T13:32:07.987Z,21.83
2018-03-19T13:34:34.724Z,23.93
2018-03-19T13:37:01.461Z,21.47
2018-03-19T13:39:28.264Z,24.40
2018-03-19T13:41:55.575Z,24.47
2018-03-19T13:44:22.319Z,23.73
2018-03-19T13:46:49.054Z,21.43
2018-03-19T13:49:15.837Z,25.10
2018-03-19T13:51:42.634Z,27.20
2018-03-19T13:54:09.378Z,25.37
2018-03-19T13:56:36.169Z,24.52
2018-03-19T13:59:02.965Z,22.17
2018-03-19T14:01:29.717Z,21.92
2018-03-19T14:03:56.479Z,21.33
2018-03-19T14:06:23.220Z,21.58
2018-03-19T14:08:49.958Z,23.43
2018-03-19T14:11:16.702Z,26.62
2018-03-19T14:13:43.442Z,22.77
2018-03-19T14:16:10.202Z,26.27
2018-03-19T14:18:36.958Z,21.90
2018-03-19T14:21:03.683Z,21.77
2018-03-19T14:23:30.452Z,22.00
2018-03-19T14:25:57.204Z,21.60
2018-03-19T14:28:23.925Z,24.97
2018-03-19T14:30:50.656Z,22.63
2018-03-19T14:33:17.415Z,22.90
2018-03-19T14:35:44.146Z,22.73
2018-03-19T14:38:10.899Z,24.67
2018-03-19T14:40:37.619Z,23.07
2018-03-19T14:43:04.391Z,26.52
2018-03-19T14:45:31.131Z,23.77
2018-03-19T14:47:57.910Z,26.23
2018-03-19T14:50:24.681Z,23.63
2018-03-19T14:52:51.449Z,22.40
2018-03-19T14:55:18.177Z,22.90
2018-03-19T14:57:44.934Z,22.58
2018-03-19T15:00:11.675Z,25.15
2018-03-19T15:02:38.433Z,19.87
2018-03-19T15:05:05.224Z,22.60
2018-03-19T15:07:31.966Z,22.92
2018-03-19T15:09:58.737Z,21.80
2018-03-19T15:12:25.493Z,23.77
2018-03-19T15:14:52.236Z,24.25
2018-03-19T15:17:18.978Z,20.83
2018-03-19T15:19:45.705Z,21.10
2018-03-19T15:22:12.438Z,20.08
2018-03-19T15:24:39.193Z,24.37
2018-03-19T15:27:05.932Z,24.83
2018-03-19T15:29:32.680Z,22.00
2018-03-19T15:31:59.419Z,24.83
2018-03-19T15:34:26.182Z,22.13
2018-03-19T15:36:52.970Z,24.00
2018-03-19T15:39:19.734Z,24.00
2018-03-19T15:41:46.481Z,23.92
2018-03-19T15:44:13.237Z,19.58
2018-03-19T15:46:39.993Z,20.30
2018-03-19T15:49:06.772Z,22.30
2018-03-19T15:51:33.543Z,20.70
2018-03-19T15:54:00.304Z,22.00
2018-03-19T15:56:27.828Z,21.67
2018-03-19T15:58:54.433Z,21.92
2018-03-19T16:01:21.190Z,22.33
2018-03-19T16:03:48.070Z,23.90
2018-03-19T16:06:14.818Z,29.05
2018-03-19T16:08:41.559Z,30.70
2018-03-19T16:11:08.304Z,24.73
2018-03-19T16:13:35.056Z,27.52
2018-03-19T16:16:01.817Z,25.95
2018-03-19T16:18:28.610Z,24.73
2018-03-19T16:20:55.383Z,26.25
2018-03-19T16:23:22.184Z,26.08
2018-03-19T16:25:48.933Z,25.08
2018-03-19T16:28:15.720Z,25.12
2018-03-19T16:30:42.533Z,31.87
2018-03-19T16:33:09.281Z,22.87
2018-03-19T16:35:36.957Z,27.05
2018-03-19T16:38:03.745Z,24.80
2018-03-19T16:40:30.516Z,23.48
2018-03-19T16:42:57.267Z,24.83
2018-03-19T16:45:24.009Z,26.00
2018-03-19T16:47:50.800Z,25.12
2018-03-19T16:50:17.578Z,24.77
2018-03-19T16:52:44.343Z,27.00
2018-03-19T16:55:11.089Z,24.12
2018-03-19T16:57:37.954Z,22.77
2018-03-19T17:00:04.715Z,24.90
2018-03-19T17:02:31.482Z,26.42
2018-03-19T17:04:58.237Z,30.20
2018-03-19T17:07:24.991Z,28.73
2018-03-19T17:09:51.747Z,30.35
2018-03-19T17:12:18.530Z,30.42
2018-03-19T17:14:45.285Z,35.92
2018-03-19T17:17:12.040Z,30.33
2018-03-19T17:19:38.787Z,33.05
2018-03-19T17:22:05.554Z,36.45
2018-03-19T17:24:32.319Z,30.08
2018-03-19T17:26:59.059Z,36.78
2018-03-19T17:29:25.831Z,33.95
2018-03-19T17:31:52.580Z,34.22
2018-03-19T17:34:19.342Z,37.50
2018-03-19T17:36:46.101Z,35.88
2018-03-19T17:39:12.864Z,32.92
2018-03-19T17:41:39.654Z,30.88
2018-03-19T17:44:06.400Z,32.95
2018-03-19T17:46:33.164Z,30.00
2018-03-19T17:48:59.918Z,28.67
2018-03-19T17:51:26.662Z,30.33
2018-03-19T17:53:53.412Z,27.77
2018-03-19T17:56:20.179Z,32.80
2018-03-19T17:58:46.940Z,32.08
2018-03-19T18:01:13.728Z,31.55
2018-03-19T18:03:40.485Z,32.40
2018-03-19T18:06:07.255Z,36.22
2018-03-19T18:08:34.003Z,34.38
2018-03-19T18:11:00.773Z,37.45
2018-03-19T18:13:27.575Z,36.75
2018-03-19T18:15:54.335Z,33.60
2018-03-19T18:18:21.087Z,35.40
2018-03-19T18:20:47.867Z,41.60
2018-03-19T18:23:14.630Z,37.08
2018-03-19T18:25:42.902Z,38.40
2018-03-19T18:28:09.778Z,34.88
2018-03-19T18:30:36.538Z,37.13
2018-03-19T18:33:03.371Z,34.58
2018-03-19T18:35:30.146Z,35.60
2018-03-19T18:37:56.904Z,32.63
2018-03-19T18:40:23.702Z,31.92
2018-03-19T18:42:50.453Z,34.58
2018-03-19T18:45:17.676Z,35.83
2018-03-19T18:47:44.494Z,34.35
2018-03-19T18:50:11.260Z,35.75
2018-03-19T18:52:38.030Z,33.15
2018-03-19T18:55:04.817Z,37.13
2018-03-19T18:57:31.606Z,37.70
2018-03-19T18:59:58.354Z,39.53
2018-03-19T19:02:25.111Z,39.45
2018-03-19T19:04:51.876Z,39.33
2018-03-19T19:07:18.648Z,33.78
2018-03-19T19:09:45.384Z,37.30
2018-03-19T19:12:12.151Z,37.67
2018-03-19T19:14:38.906Z,34.05
2018-03-19T19:17:05.665Z,36.65
2018-03-19T19:19:32.420Z,30.05
2018-03-19T19:21:59.189Z,30.80
2018-03-19T19:24:25.932Z,38.70
2018-03-19T19:26:52.874Z,34.60
2018-03-19T19:29:20.360Z,38.10
2018-03-19T19:31:47.545Z,35.08
2018-03-19T19:34:14.429Z,38.45
2018-03-19T19:36:41.196Z,34.90
2018-03-19T19:39:08.630Z,40.25
2018-03-19T19:41:35.400Z,37.45
2018-03-19T19:44:02.243Z,38.10
2018-03-19T19:46:29.009Z,34.88
2018-03-19T19:48:55.767Z,33.00
2018-03-19T19:51:22.606Z,32.47
2018-03-19T19:53:49.443Z,32.58
2018-03-19T19:56:16.337Z,28.87
2018-03-19T19:58:43.128Z,33.75
2018-03-19T20:01:09.923Z,30.05
2018-03-19T20:03:36.867Z,31.30
2018-03-19T20:06:03.666Z,31.23
2018-03-19T20:08:30.456Z,34.08
2018-03-19T20:10:57.216Z,33.58
2018-03-19T20:13:24.129Z,35.67
2018-03-19T20:15:50.903Z,33.95
2018-03-19T20:18:17.685Z,39.50
2018-03-19T20:20:44.419Z,36.00
2018-03-19T20:23:11.441Z,35.03
2018-03-19T20:25:38.343Z,39.80
2018-03-19T20:28:05.094Z,34.20
2018-03-19T20:30:31.878Z,31.52
2018-03-19T20:32:58.906Z,37.78
2018-03-19T20:35:25.884Z,33.65
2018-03-19T20:37:52.748Z,35.80
2018-03-19T20:40:19.512Z,33.67
2018-03-19T20:42:46.291Z,34.25
2018-03-19T20:45:13.099Z,40.20
2018-03-19T20:47:39.856Z,32.15
2018-03-19T20:50:06.596Z,33.55
2018-03-19T20:52:33.348Z,40.10
2018-03-19T20:55:00.103Z,32.28
2018-03-19T20:57:26.878Z,35.28
2018-03-19T20:59:53.674Z,37.67
2018-03-19T21:02:20.439Z,32.25
2018-03-19T21:04:47.207Z,32.70
2018-03-19T21:07:13.987Z,38.83
2018-03-19T21:09:40.774Z,33.22
2018-03-19T21:12:07.527Z,34.90
2018-03-19T21:14:34.270Z,32.58
2018-03-19T21:17:01.003Z,33.50
2018-03-19T21:19:27.790Z,33.13
2018-03-19T21:21:54.534Z,36.67
2018-03-19T21:24:21.277Z,35.28
2018-03-19T21:26:48.019Z,35.35
2018-03-19T21:29:14.758Z,34.35
2018-03-19T21:31:41.502Z,36.72
2018-03-19T21:34:08.298Z,38.08
2018-03-19T21:36:35.048Z,39.40
2018-03-19T21:39:01.796Z,42.10
2018-03-19T21:41:28.534Z,36.05
2018-03-19T21:43:55.278Z,39.60
2018-03-19T21:46:22.025Z,35.00
2018-03-19T21:48:48.773Z,37.15
2018-03-19T21:51:15.515Z,40.90
2018-03-19T21:53:42.286Z,37.90
2018-03-19T21:56:09.139Z,33.00
2018-03-19T21:58:35.871Z,39.65
2018-03-19T22:01:02.622Z,36.50
2018-03-19T22:03:29.380Z,35.00
2018-03-19T22:05:56.150Z,37.78
2018-03-19T22:08:22.904Z,38.58
2018-03-19T22:10:49.644Z,34.20
2018-03-19T22:13:16.421Z,34.53
2018-03-19T22:15:43.170Z,31.92
2018-03-19T22:18:09.935Z,32.47
2018-03-19T22:20:36.704Z,38.90
2018-03-19T22:23:03.443Z,32.35
2018-03-19T22:25:30.180Z,38.17
2018-03-19T22:27:56.926Z,36.33
2018-03-19T22:30:23.660Z,35.00
2018-03-19T22:32:50.400Z,36.00
2018-03-19T22:35:17.143Z,37.60
2018-03-19T22:37:43.883Z,37.97
2018-03-19T22:40:10.637Z,35.10
2018-03-19T22:42:37.364Z,36.60
2018-03-19T22:45:04.095Z,40.88
2018-03-19T22:47:30.827Z,34.38
2018-03-19T22:49:57.582Z,33.33
2018-03-19T22:52:24.326Z,33.95
2018-03-19T22:54:51.063Z,32.15
2018-03-19T22:57:17.806Z,29.40
2018-03-19T22:59:44.654Z,34.72
2018-03-19T23:02:11.395Z,33.00
2018-03-19T23:04:44.195Z,34.78
2018-03-19T23:07:10.942Z,31.87
2018-03-19T23:09:37.674Z,37.90
2018-03-19T23:12:04.416Z,37.30
2018-03-19T23:14:31.154Z,34.47
2018-03-19T23:16:57.889Z,33.10
2018-03-19T23:19:24.627Z,34.40
2018-03-19T23:21:51.375Z,33.58
2018-03-19T23:24:18.109Z,34.85
2018-03-19T23:26:44.858Z,36.15
2018-03-19T23:29:11.593Z,31.60
2018-03-19T23:31:38.350Z,36.05
2018-03-19T23:34:05.101Z,32.90
2018-03-19T23:36:31.844Z,36.45
2018-03-19T23:38:58.578Z,35.90
2018-03-19T23:41:25.316Z,38.20
2018-03-19T23:43:52.054Z,35.63
2018-03-19T23:46:18.794Z,34.22
2018-03-19T23:48:45.571Z,33.15
2018-03-19T23:51:12.306Z,36.25
2018-03-19T23:53:39.064Z,40.05
2018-03-19T23:56:05.808Z,35.85
2018-03-19T23:58:32.550Z,31.52
